sensor_id;sensor_type;location;lat;lon;timestamp;temperature;humidity
42803;DHT22;28447;48.682;9.022;2022-12-31T00:01:10;11.50;99.90
42803;DHT22;28447;48.682;9.022;2022-12-31T00:03:36;11.40;99.90
42803;DHT22;28447;48.682;9.022;2022-12-31T00:06:12;11.50;99.90
42803;DHT22;28447;48.682;9.022;2022-12-31T00:08:37;11.60;99.90
42803;DHT22;28447;48.682;9.022;2022-12-31T00:11:03;11.50;99.90
42803;DHT22;28447;48.682;9.022;2022-12-31T00:13:29;11.60;99.90
42803;DHT22;28447;48.682;9.022;2022-12-31T00:15:54;11.60;99.90
42803;DHT22;28447;48.682;9.022;2022-12-31T00:18:20;11.60;99.90
42803;DHT22;28447;48.682;9.022;2022-12-31T00:20:46;11.70;99.90
42803;DHT22;28447;48.682;9.022;2022-12-31T00:23:11;11.60;99.90
42803;DHT22;28447;48.682;9.022;2022-12-31T00:25:37;11.60;99.90
42803;DHT22;28447;48.682;9.022;2022-12-31T00:28:03;11.70;99.90
42803;DHT22;28447;48.682;9.022;2022-12-31T00:30:29;11.70;99.90
42803;DHT22;28447;48.682;9.022;2022-12-31T00:32:55;11.70;99.90
42803;DHT22;28447;48.682;9.022;2022-12-31T00:35:20;11.70;99.90
42803;DHT22;28447;48.682;9.022;2022-12-31T00:37:46;11.80;99.90
42803;DHT22;28447;48.682;9.022;2022-12-31T00:40:11;11.80;99.90
42803;DHT22;28447;48.682;9.022;2022-12-31T00:42:38;12.10;99.90
42803;DHT22;28447;48.682;9.022;2022-12-31T00:45:04;12.20;99.90
42803;DHT22;28447;48.682;9.022;2022-12-31T00:47:29;12.40;99.90
42803;DHT22;28447;48.682;9.022;2022-12-31T00:49:55;12.30;99.90
42803;DHT22;28447;48.682;9.022;2022-12-31T00:52:20;12.50;99.90
42803;DHT22;28447;48.682;9.022;2022-12-31T00:54:46;12.50;99.90
42803;DHT22;28447;48.682;9.022;2022-12-31T00:57:12;12.70;99.90
42803;DHT22;28447;48.682;9.022;2022-12-31T00:59:37;12.60;99.90
42803;DHT22;28447;48.682;9.022;2022-12-31T01:02:03;12.80;99.90
42803;DHT22;28447;48.682;9.022;2022-12-31T01:04:29;13.00;99.90
42803;DHT22;28447;48.682;9.022;2022-12-31T01:06:54;12.80;99.90
42803;DHT22;28447;48.682;9.022;2022-12-31T01:09:20;12.80;99.90
42803;DHT22;28447;48.682;9.022;2022-12-31T01:11:45;12.80;99.90
42803;DHT22;28447;48.682;9.022;2022-12-31T01:14:16;12.80;99.90
42803;DHT22;28447;48.682;9.022;2022-12-31T01:16:50;12.90;99.90
42803;DHT22;28447;48.682;9.022;2022-12-31T01:19:22;13.00;99.90
42803;DHT22;28447;48.682;9.022;2022-12-31T01:21:49;13.10;99.90
42803;DHT22;28447;48.682;9.022;2022-12-31T01:24:15;13.10;99.90
42803;DHT22;28447;48.682;9.022;2022-12-31T01:26:41;13.20;99.90
42803;DHT22;28447;48.682;9.022;2022-12-31T01:29:08;13.10;99.90
42803;DHT22;28447;48.682;9.022;2022-12-31T01:31:35;13.20;99.90
42803;DHT22;28447;48.682;9.022;2022-12-31T01:34:01;13.20;99.90
42803;DHT22;28447;48.682;9.022;2022-12-31T01:36:29;13.30;99.90
42803;DHT22;28447;48.682;9.022;2022-12-31T01:38:56;13.20;99.90
42803;DHT22;28447;48.682;9.022;2022-12-31T01:41:28;13.20;99.90
42803;DHT22;28447;48.682;9.022;2022-12-31T01:43:55;13.20;99.90
42803;DHT22;28447;48.682;9.022;2022-12-31T01:48:56;13.20;99.90
42803;DHT22;28447;48.682;9.022;2022-12-31T01:51:25;13.10;99.90
42803;DHT22;28447;48.682;9.022;2022-12-31T01:53:51;13.10;99.90
42803;DHT22;28447;48.682;9.022;2022-12-31T01:56:18;13.20;99.90
42803;DHT22;28447;48.682;9.022;2022-12-31T01:58:48;13.10;99.90
42803;DHT22;28447;48.682;9.022;2022-12-31T02:01:20;13.00;99.90
42803;DHT22;28447;48.682;9.022;2022-12-31T02:03:47;13.20;99.90
42803;DHT22;28447;48.682;9.022;2022-12-31T02:06:17;13.10;99.90
42803;DHT22;28447;48.682;9.022;2022-12-31T02:08:44;13.10;99.90
42803;DHT22;28447;48.682;9.022;2022-12-31T02:13:48;13.10;99.90
42803;DHT22;28447;48.682;9.022;2022-12-31T02:30:32;13.30;99.90
42803;DHT22;28447;48.682;9.022;2022-12-31T02:38:06;13.30;99.90
42803;DHT22;28447;48.682;9.022;2022-12-31T02:40:34;13.20;99.90
42803;DHT22;28447;48.682;9.022;2022-12-31T02:43:00;13.30;99.90
42803;DHT22;28447;48.682;9.022;2022-12-31T02:45:31;13.40;99.90
42803;DHT22;28447;48.682;9.022;2022-12-31T02:59:09;13.60;99.90
42803;DHT22;28447;48.682;9.022;2022-12-31T03:02:01;13.50;99.90
42803;DHT22;28447;48.682;9.022;2022-12-31T03:05:06;13.50;99.90
42803;DHT22;28447;48.682;9.022;2022-12-31T03:07:33;13.40;99.90
42803;DHT22;28447;48.682;9.022;2022-12-31T03:09:59;13.60;99.90
42803;DHT22;28447;48.682;9.022;2022-12-31T03:12:30;13.70;99.90
42803;DHT22;28447;48.682;9.022;2022-12-31T03:15:28;13.70;99.90
42803;DHT22;28447;48.682;9.022;2022-12-31T03:23:29;13.80;99.90
42803;DHT22;28447;48.682;9.022;2022-12-31T03:25:56;13.90;99.90
42803;DHT22;28447;48.682;9.022;2022-12-31T03:28:25;13.90;99.90
42803;DHT22;28447;48.682;9.022;2022-12-31T03:30:54;13.90;99.90
42803;DHT22;28447;48.682;9.022;2022-12-31T03:33:20;14.00;99.90
42803;DHT22;28447;48.682;9.022;2022-12-31T03:35:47;13.80;99.90
42803;DHT22;28447;48.682;9.022;2022-12-31T03:38:14;13.80;99.90
42803;DHT22;28447;48.682;9.022;2022-12-31T03:40:43;13.80;99.90
42803;DHT22;28447;48.682;9.022;2022-12-31T03:43:09;13.90;99.90
42803;DHT22;28447;48.682;9.022;2022-12-31T03:45:35;13.80;99.90
42803;DHT22;28447;48.682;9.022;2022-12-31T03:48:02;13.70;99.90
42803;DHT22;28447;48.682;9.022;2022-12-31T03:50:29;13.70;99.90
42803;DHT22;28447;48.682;9.022;2022-12-31T03:52:55;13.80;99.90
42803;DHT22;28447;48.682;9.022;2022-12-31T03:55:20;13.80;99.90
42803;DHT22;28447;48.682;9.022;2022-12-31T03:57:46;13.70;99.90
42803;DHT22;28447;48.682;9.022;2022-12-31T04:00:15;13.80;99.90
42803;DHT22;28447;48.682;9.022;2022-12-31T04:02:42;13.90;99.90
42803;DHT22;28447;48.682;9.022;2022-12-31T04:05:08;14.00;99.90
42803;DHT22;28447;48.682;9.022;2022-12-31T04:07:34;13.90;99.90
42803;DHT22;28447;48.682;9.022;2022-12-31T04:10:00;14.10;99.90
42803;DHT22;28447;48.682;9.022;2022-12-31T04:12:26;14.00;99.90
42803;DHT22;28447;48.682;9.022;2022-12-31T04:14:52;14.10;99.90
42803;DHT22;28447;48.682;9.022;2022-12-31T04:17:17;14.20;99.90
42803;DHT22;28447;48.682;9.022;2022-12-31T04:19:43;14.20;99.90
42803;DHT22;28447;48.682;9.022;2022-12-31T04:22:08;14.10;99.90
42803;DHT22;28447;48.682;9.022;2022-12-31T04:24:34;14.00;99.90
42803;DHT22;28447;48.682;9.022;2022-12-31T04:26:59;14.20;99.90
42803;DHT22;28447;48.682;9.022;2022-12-31T04:29:25;14.30;99.90
42803;DHT22;28447;48.682;9.022;2022-12-31T04:31:51;14.10;99.90
42803;DHT22;28447;48.682;9.022;2022-12-31T04:34:16;14.00;99.90
42803;DHT22;28447;48.682;9.022;2022-12-31T04:36:42;13.90;99.90
42803;DHT22;28447;48.682;9.022;2022-12-31T04:39:07;14.00;99.90
42803;DHT22;28447;48.682;9.022;2022-12-31T04:41:33;14.10;99.90
42803;DHT22;28447;48.682;9.022;2022-12-31T04:43:59;14.10;99.90
42803;DHT22;28447;48.682;9.022;2022-12-31T04:46:27;14.10;99.90
42803;DHT22;28447;48.682;9.022;2022-12-31T04:48:53;14.40;99.90
42803;DHT22;28447;48.682;9.022;2022-12-31T04:51:20;14.30;99.90
42803;DHT22;28447;48.682;9.022;2022-12-31T04:53:47;14.20;99.90
42803;DHT22;28447;48.682;9.022;2022-12-31T04:56:13;14.20;99.90
42803;DHT22;28447;48.682;9.022;2022-12-31T04:58:39;14.10;99.90
42803;DHT22;28447;48.682;9.022;2022-12-31T05:01:06;14.00;99.90
42803;DHT22;28447;48.682;9.022;2022-12-31T05:03:32;13.90;99.90
42803;DHT22;28447;48.682;9.022;2022-12-31T05:06:21;13.80;99.90
42803;DHT22;28447;48.682;9.022;2022-12-31T05:08:47;13.80;99.90
42803;DHT22;28447;48.682;9.022;2022-12-31T05:11:13;13.80;99.90
42803;DHT22;28447;48.682;9.022;2022-12-31T05:13:39;13.80;99.90
42803;DHT22;28447;48.682;9.022;2022-12-31T05:16:05;13.80;99.90
42803;DHT22;28447;48.682;9.022;2022-12-31T05:18:31;13.80;99.90
42803;DHT22;28447;48.682;9.022;2022-12-31T05:20:57;13.80;99.90
42803;DHT22;28447;48.682;9.022;2022-12-31T05:23:23;13.90;99.90
42803;DHT22;28447;48.682;9.022;2022-12-31T05:25:49;13.90;99.90
42803;DHT22;28447;48.682;9.022;2022-12-31T05:28:15;13.90;99.90
42803;DHT22;28447;48.682;9.022;2022-12-31T05:30:41;13.90;99.90
42803;DHT22;28447;48.682;9.022;2022-12-31T05:33:06;13.90;99.90
42803;DHT22;28447;48.682;9.022;2022-12-31T05:35:32;13.90;99.90
42803;DHT22;28447;48.682;9.022;2022-12-31T05:37:59;13.90;99.90
42803;DHT22;28447;48.682;9.022;2022-12-31T05:40:25;13.90;99.90
42803;DHT22;28447;48.682;9.022;2022-12-31T05:42:50;13.80;99.90
42803;DHT22;28447;48.682;9.022;2022-12-31T05:45:16;13.70;99.90
42803;DHT22;28447;48.682;9.022;2022-12-31T05:47:43;13.60;99.90
42803;DHT22;28447;48.682;9.022;2022-12-31T05:50:10;13.60;99.90
42803;DHT22;28447;48.682;9.022;2022-12-31T05:52:36;13.60;99.90
42803;DHT22;28447;48.682;9.022;2022-12-31T05:55:02;13.60;99.90
42803;DHT22;28447;48.682;9.022;2022-12-31T05:57:27;13.60;99.90
42803;DHT22;28447;48.682;9.022;2022-12-31T05:59:53;13.70;99.90
42803;DHT22;28447;48.682;9.022;2022-12-31T06:02:19;13.70;99.90
42803;DHT22;28447;48.682;9.022;2022-12-31T06:04:45;13.60;99.90
42803;DHT22;28447;48.682;9.022;2022-12-31T06:07:11;13.60;99.90
42803;DHT22;28447;48.682;9.022;2022-12-31T06:09:37;13.60;99.90
42803;DHT22;28447;48.682;9.022;2022-12-31T06:12:03;13.50;99.90
42803;DHT22;28447;48.682;9.022;2022-12-31T06:14:28;13.50;99.90
42803;DHT22;28447;48.682;9.022;2022-12-31T06:16:54;13.40;99.90
42803;DHT22;28447;48.682;9.022;2022-12-31T06:19:20;13.30;99.90
42803;DHT22;28447;48.682;9.022;2022-12-31T06:21:45;13.30;99.90
42803;DHT22;28447;48.682;9.022;2022-12-31T06:24:11;13.40;99.90
42803;DHT22;28447;48.682;9.022;2022-12-31T06:26:37;13.30;99.90
42803;DHT22;28447;48.682;9.022;2022-12-31T06:29:02;13.20;99.90
42803;DHT22;28447;48.682;9.022;2022-12-31T06:31:28;13.30;99.90
42803;DHT22;28447;48.682;9.022;2022-12-31T06:33:54;13.20;99.90
42803;DHT22;28447;48.682;9.022;2022-12-31T06:36:20;13.20;99.90
42803;DHT22;28447;48.682;9.022;2022-12-31T06:38:47;13.10;99.90
42803;DHT22;28447;48.682;9.022;2022-12-31T06:41:14;13.20;99.90
42803;DHT22;28447;48.682;9.022;2022-12-31T06:43:41;13.10;99.90
42803;DHT22;28447;48.682;9.022;2022-12-31T06:46:12;13.20;99.90
42803;DHT22;28447;48.682;9.022;2022-12-31T06:48:38;13.10;99.90
42803;DHT22;28447;48.682;9.022;2022-12-31T06:51:14;13.10;99.90
42803;DHT22;28447;48.682;9.022;2022-12-31T06:53:40;13.10;99.90
42803;DHT22;28447;48.682;9.022;2022-12-31T06:56:22;13.00;99.90
42803;DHT22;28447;48.682;9.022;2022-12-31T06:58:50;13.00;99.90
42803;DHT22;28447;48.682;9.022;2022-12-31T07:09:37;13.20;99.90
42803;DHT22;28447;48.682;9.022;2022-12-31T07:14:57;13.20;99.90
42803;DHT22;28447;48.682;9.022;2022-12-31T07:18:02;13.30;99.90
42803;DHT22;28447;48.682;9.022;2022-12-31T07:20:30;13.30;99.90
42803;DHT22;28447;48.682;9.022;2022-12-31T07:22:55;13.30;99.90
42803;DHT22;28447;48.682;9.022;2022-12-31T07:25:21;13.40;99.90
42803;DHT22;28447;48.682;9.022;2022-12-31T07:30:45;13.40;99.90
42803;DHT22;28447;48.682;9.022;2022-12-31T07:39:20;13.50;99.90
42803;DHT22;28447;48.682;9.022;2022-12-31T07:41:53;13.50;99.90
42803;DHT22;28447;48.682;9.022;2022-12-31T07:44:52;13.60;99.90
42803;DHT22;28447;48.682;9.022;2022-12-31T07:47:23;13.50;99.90
42803;DHT22;28447;48.682;9.022;2022-12-31T07:49:50;13.60;99.90
42803;DHT22;28447;48.682;9.022;2022-12-31T07:52:16;13.60;99.90
42803;DHT22;28447;48.682;9.022;2022-12-31T07:54:42;13.40;99.90
42803;DHT22;28447;48.682;9.022;2022-12-31T07:57:12;13.40;99.90
42803;DHT22;28447;48.682;9.022;2022-12-31T07:59:59;13.30;99.90
42803;DHT22;28447;48.682;9.022;2022-12-31T08:13:04;13.70;99.90
42803;DHT22;28447;48.682;9.022;2022-12-31T08:15:30;13.70;99.90
42803;DHT22;28447;48.682;9.022;2022-12-31T08:17:56;13.70;99.90
42803;DHT22;28447;48.682;9.022;2022-12-31T08:20:21;13.80;99.90
42803;DHT22;28447;48.682;9.022;2022-12-31T08:25:36;14.10;99.90
42803;DHT22;28447;48.682;9.022;2022-12-31T08:28:25;14.10;99.90
42803;DHT22;28447;48.682;9.022;2022-12-31T08:31:18;14.10;99.90
42803;DHT22;28447;48.682;9.022;2022-12-31T08:45:19;14.50;99.90
42803;DHT22;28447;48.682;9.022;2022-12-31T08:50:40;14.60;99.90
42803;DHT22;28447;48.682;9.022;2022-12-31T08:53:06;14.70;99.90
42803;DHT22;28447;48.682;9.022;2022-12-31T08:55:32;14.70;99.90
42803;DHT22;28447;48.682;9.022;2022-12-31T09:00:56;14.70;99.90
42803;DHT22;28447;48.682;9.022;2022-12-31T09:06:18;14.60;99.90
42803;DHT22;28447;48.682;9.022;2022-12-31T09:11:29;14.80;99.90
42803;DHT22;28447;48.682;9.022;2022-12-31T09:17:02;15.10;99.90
42803;DHT22;28447;48.682;9.022;2022-12-31T09:19:30;15.30;99.90
42803;DHT22;28447;48.682;9.022;2022-12-31T09:21:56;15.40;99.90
42803;DHT22;28447;48.682;9.022;2022-12-31T09:24:22;15.60;99.90
42803;DHT22;28447;48.682;9.022;2022-12-31T09:30:04;15.80;99.90
42803;DHT22;28447;48.682;9.022;2022-12-31T09:32:55;15.90;99.90
42803;DHT22;28447;48.682;9.022;2022-12-31T09:38:22;16.10;99.90
42803;DHT22;28447;48.682;9.022;2022-12-31T09:41:14;16.20;99.90
42803;DHT22;28447;48.682;9.022;2022-12-31T10:14:18;16.70;99.90
42803;DHT22;28447;48.682;9.022;2022-12-31T10:23:04;16.70;99.90
42803;DHT22;28447;48.682;9.022;2022-12-31T10:25:35;16.60;99.90
42803;DHT22;28447;48.682;9.022;2022-12-31T10:36:14;16.90;99.90
42803;DHT22;28447;48.682;9.022;2022-12-31T10:39:14;17.00;99.90
42803;DHT22;28447;48.682;9.022;2022-12-31T10:42:03;17.00;99.90
42803;DHT22;28447;48.682;9.022;2022-12-31T10:45:17;17.20;99.90
42803;DHT22;28447;48.682;9.022;2022-12-31T10:48:28;17.20;99.90
42803;DHT22;28447;48.682;9.022;2022-12-31T11:02:17;17.20;99.90
42803;DHT22;28447;48.682;9.022;2022-12-31T11:05:10;17.30;99.90
42803;DHT22;28447;48.682;9.022;2022-12-31T11:07:55;17.50;99.90
42803;DHT22;28447;48.682;9.022;2022-12-31T11:18:38;17.80;99.90
42803;DHT22;28447;48.682;9.022;2022-12-31T11:24:27;17.80;99.90
42803;DHT22;28447;48.682;9.022;2022-12-31T11:35:49;18.10;99.90
42803;DHT22;28447;48.682;9.022;2022-12-31T11:38:42;18.30;99.90
42803;DHT22;28447;48.682;9.022;2022-12-31T11:41:31;18.60;99.90
42803;DHT22;28447;48.682;9.022;2022-12-31T11:44:11;19.50;99.90
42803;DHT22;28447;48.682;9.022;2022-12-31T11:54:56;18.70;99.90
42803;DHT22;28447;48.682;9.022;2022-12-31T11:57:36;19.40;99.90
42803;DHT22;28447;48.682;9.022;2022-12-31T12:00:12;19.60;99.90
42803;DHT22;28447;48.682;9.022;2022-12-31T12:02:44;19.10;99.90
42803;DHT22;28447;48.682;9.022;2022-12-31T12:05:14;18.80;99.90
42803;DHT22;28447;48.682;9.022;2022-12-31T12:07:40;19.10;99.90
42803;DHT22;28447;48.682;9.022;2022-12-31T12:12:53;19.70;99.90
42803;DHT22;28447;48.682;9.022;2022-12-31T12:15:32;19.90;99.90
42803;DHT22;28447;48.682;9.022;2022-12-31T12:18:05;19.60;99.90
42803;DHT22;28447;48.682;9.022;2022-12-31T12:20:37;19.60;99.90
42803;DHT22;28447;48.682;9.022;2022-12-31T12:23:22;19.90;99.90
42803;DHT22;28447;48.682;9.022;2022-12-31T12:25:51;20.00;99.90
42803;DHT22;28447;48.682;9.022;2022-12-31T12:30:44;19.70;99.90
42803;DHT22;28447;48.682;9.022;2022-12-31T12:33:18;19.60;99.90
42803;DHT22;28447;48.682;9.022;2022-12-31T12:35:44;19.70;99.90
42803;DHT22;28447;48.682;9.022;2022-12-31T12:38:21;19.70;99.90
42803;DHT22;28447;48.682;9.022;2022-12-31T12:40:57;19.50;99.90
42803;DHT22;28447;48.682;9.022;2022-12-31T12:43:27;19.40;99.90
42803;DHT22;28447;48.682;9.022;2022-12-31T12:45:58;19.70;99.90
42803;DHT22;28447;48.682;9.022;2022-12-31T12:48:45;20.20;99.90
42803;DHT22;28447;48.682;9.022;2022-12-31T13:13:43;18.70;99.90
42803;DHT22;28447;48.682;9.022;2022-12-31T13:19:11;18.60;99.90
42803;DHT22;28447;48.682;9.022;2022-12-31T13:24:40;18.70;99.90
42803;DHT22;28447;48.682;9.022;2022-12-31T13:27:40;18.60;99.90
42803;DHT22;28447;48.682;9.022;2022-12-31T13:30:26;18.70;99.90
42803;DHT22;28447;48.682;9.022;2022-12-31T13:33:00;19.10;99.90
42803;DHT22;28447;48.682;9.022;2022-12-31T13:35:53;19.00;99.90
42803;DHT22;28447;48.682;9.022;2022-12-31T13:38:22;18.80;99.90
42803;DHT22;28447;48.682;9.022;2022-12-31T13:41:08;18.60;99.90
42803;DHT22;28447;48.682;9.022;2022-12-31T13:43:44;18.70;99.90
42803;DHT22;28447;48.682;9.022;2022-12-31T13:46:38;18.30;99.90
42803;DHT22;28447;48.682;9.022;2022-12-31T13:49:15;18.20;99.90
42803;DHT22;28447;48.682;9.022;2022-12-31T13:51:49;17.90;99.90
42803;DHT22;28447;48.682;9.022;2022-12-31T13:56:42;17.90;99.90
42803;DHT22;28447;48.682;9.022;2022-12-31T13:59:28;17.90;99.90
42803;DHT22;28447;48.682;9.022;2022-12-31T14:04:46;17.90;99.90
42803;DHT22;28447;48.682;9.022;2022-12-31T14:07:20;17.90;99.90
42803;DHT22;28447;48.682;9.022;2022-12-31T14:09:46;17.90;99.90
42803;DHT22;28447;48.682;9.022;2022-12-31T14:17:50;17.90;99.90
42803;DHT22;28447;48.682;9.022;2022-12-31T14:25:50;17.80;99.90
42803;DHT22;28447;48.682;9.022;2022-12-31T14:28:28;17.80;99.90
42803;DHT22;28447;48.682;9.022;2022-12-31T14:31:00;17.70;99.90
42803;DHT22;28447;48.682;9.022;2022-12-31T14:51:10;17.20;99.90
42803;DHT22;28447;48.682;9.022;2022-12-31T14:53:36;17.10;99.90
42803;DHT22;28447;48.682;9.022;2022-12-31T14:56:25;17.10;99.90
42803;DHT22;28447;48.682;9.022;2022-12-31T14:59:00;17.00;99.90
42803;DHT22;28447;48.682;9.022;2022-12-31T15:01:26;16.90;99.90
42803;DHT22;28447;48.682;9.022;2022-12-31T15:03:56;16.80;99.90
42803;DHT22;28447;48.682;9.022;2022-12-31T15:09:31;16.50;99.90
42803;DHT22;28447;48.682;9.022;2022-12-31T15:15:25;16.10;99.90
42803;DHT22;28447;48.682;9.022;2022-12-31T15:23:20;15.90;99.90
42803;DHT22;28447;48.682;9.022;2022-12-31T15:25:48;15.80;99.90
42803;DHT22;28447;48.682;9.022;2022-12-31T15:31:07;15.50;99.90
42803;DHT22;28447;48.682;9.022;2022-12-31T15:33:51;15.50;99.90
42803;DHT22;28447;48.682;9.022;2022-12-31T15:36:20;15.50;99.90
42803;DHT22;28447;48.682;9.022;2022-12-31T15:38:46;15.50;99.90
42803;DHT22;28447;48.682;9.022;2022-12-31T15:44:05;15.50;99.90
42803;DHT22;28447;48.682;9.022;2022-12-31T15:46:36;15.50;99.90
42803;DHT22;28447;48.682;9.022;2022-12-31T15:49:23;15.50;99.90
42803;DHT22;28447;48.682;9.022;2022-12-31T15:52:01;15.40;99.90
42803;DHT22;28447;48.682;9.022;2022-12-31T15:54:40;15.30;99.90
42803;DHT22;28447;48.682;9.022;2022-12-31T15:59:57;15.20;99.90
42803;DHT22;28447;48.682;9.022;2022-12-31T16:02:25;15.00;99.90
42803;DHT22;28447;48.682;9.022;2022-12-31T16:04:51;15.10;99.90
42803;DHT22;28447;48.682;9.022;2022-12-31T16:07:17;15.10;99.90
42803;DHT22;28447;48.682;9.022;2022-12-31T16:09:49;15.00;99.90
42803;DHT22;28447;48.682;9.022;2022-12-31T16:12:23;15.10;99.90
42803;DHT22;28447;48.682;9.022;2022-12-31T16:14:53;15.30;99.90
42803;DHT22;28447;48.682;9.022;2022-12-31T16:20:45;15.20;99.90
42803;DHT22;28447;48.682;9.022;2022-12-31T16:23:21;15.00;99.90
42803;DHT22;28447;48.682;9.022;2022-12-31T16:25:48;14.80;99.90
42803;DHT22;28447;48.682;9.022;2022-12-31T16:28:34;14.70;99.90
42803;DHT22;28447;48.682;9.022;2022-12-31T16:31:05;14.50;99.90
42803;DHT22;28447;48.682;9.022;2022-12-31T16:33:31;14.60;99.90
42803;DHT22;28447;48.682;9.022;2022-12-31T16:35:59;14.60;99.90
42803;DHT22;28447;48.682;9.022;2022-12-31T16:38:36;14.60;99.90
42803;DHT22;28447;48.682;9.022;2022-12-31T16:43:38;14.80;99.90
42803;DHT22;28447;48.682;9.022;2022-12-31T16:48:33;14.70;99.90
42803;DHT22;28447;48.682;9.022;2022-12-31T16:50:59;14.60;99.90
42803;DHT22;28447;48.682;9.022;2022-12-31T16:53:26;14.60;99.90
42803;DHT22;28447;48.682;9.022;2022-12-31T16:56:04;14.70;99.90
42803;DHT22;28447;48.682;9.022;2022-12-31T16:58:36;14.50;99.90
42803;DHT22;28447;48.682;9.022;2022-12-31T17:01:17;14.40;99.90
42803;DHT22;28447;48.682;9.022;2022-12-31T17:03:46;14.30;99.90
42803;DHT22;28447;48.682;9.022;2022-12-31T17:06:19;14.20;99.90
42803;DHT22;28447;48.682;9.022;2022-12-31T17:11:41;13.90;99.90
42803;DHT22;28447;48.682;9.022;2022-12-31T17:16:54;14.00;99.90
42803;DHT22;28447;48.682;9.022;2022-12-31T17:19:39;14.30;99.90
42803;DHT22;28447;48.682;9.022;2022-12-31T17:22:31;14.50;99.90
42803;DHT22;28447;48.682;9.022;2022-12-31T17:25:19;14.50;99.90
42803;DHT22;28447;48.682;9.022;2022-12-31T17:27:56;14.40;99.90
42803;DHT22;28447;48.682;9.022;2022-12-31T17:35:35;14.20;99.90
42803;DHT22;28447;48.682;9.022;2022-12-31T17:40:54;14.60;99.90
42803;DHT22;28447;48.682;9.022;2022-12-31T17:43:26;14.50;99.90
42803;DHT22;28447;48.682;9.022;2022-12-31T17:45:52;14.50;99.90
42803;DHT22;28447;48.682;9.022;2022-12-31T17:48:19;14.50;99.90
42803;DHT22;28447;48.682;9.022;2022-12-31T17:50:55;14.40;99.90
42803;DHT22;28447;48.682;9.022;2022-12-31T17:53:21;14.30;99.90
42803;DHT22;28447;48.682;9.022;2022-12-31T17:55:51;14.40;99.90
42803;DHT22;28447;48.682;9.022;2022-12-31T17:58:30;14.40;99.90
42803;DHT22;28447;48.682;9.022;2022-12-31T18:00:57;14.50;99.90
42803;DHT22;28447;48.682;9.022;2022-12-31T18:03:22;14.30;99.90
42803;DHT22;28447;48.682;9.022;2022-12-31T18:05:48;14.10;99.90
42803;DHT22;28447;48.682;9.022;2022-12-31T18:08:15;13.90;99.90
42803;DHT22;28447;48.682;9.022;2022-12-31T18:10:41;14.00;99.90
42803;DHT22;28447;48.682;9.022;2022-12-31T18:13:13;13.80;99.90
42803;DHT22;28447;48.682;9.022;2022-12-31T18:15:40;13.70;99.90
42803;DHT22;28447;48.682;9.022;2022-12-31T18:20:48;13.60;99.90
42803;DHT22;28447;48.682;9.022;2022-12-31T18:23:27;13.70;99.90
42803;DHT22;28447;48.682;9.022;2022-12-31T18:25:53;13.50;99.90
42803;DHT22;28447;48.682;9.022;2022-12-31T18:28:19;13.50;99.90
42803;DHT22;28447;48.682;9.022;2022-12-31T18:30:45;13.40;99.90
42803;DHT22;28447;48.682;9.022;2022-12-31T18:33:12;13.40;99.90
42803;DHT22;28447;48.682;9.022;2022-12-31T18:35:39;13.40;99.90
42803;DHT22;28447;48.682;9.022;2022-12-31T18:38:13;13.40;99.90
42803;DHT22;28447;48.682;9.022;2022-12-31T18:40:39;13.40;99.90
42803;DHT22;28447;48.682;9.022;2022-12-31T18:43:15;13.40;99.90
42803;DHT22;28447;48.682;9.022;2022-12-31T18:45:42;13.50;99.90
42803;DHT22;28447;48.682;9.022;2022-12-31T18:48:08;13.60;99.90
42803;DHT22;28447;48.682;9.022;2022-12-31T18:50:34;13.60;99.90
42803;DHT22;28447;48.682;9.022;2022-12-31T18:52:59;13.50;99.90
42803;DHT22;28447;48.682;9.022;2022-12-31T18:55:47;13.40;99.90
42803;DHT22;28447;48.682;9.022;2022-12-31T18:58:14;13.40;99.90
42803;DHT22;28447;48.682;9.022;2022-12-31T19:00:40;13.40;99.90
42803;DHT22;28447;48.682;9.022;2022-12-31T19:03:08;13.30;99.90
42803;DHT22;28447;48.682;9.022;2022-12-31T19:05:36;13.30;99.90
42803;DHT22;28447;48.682;9.022;2022-12-31T19:08:02;13.10;99.90
42803;DHT22;28447;48.682;9.022;2022-12-31T19:10:27;13.20;99.90
42803;DHT22;28447;48.682;9.022;2022-12-31T19:12:53;13.40;99.90
42803;DHT22;28447;48.682;9.022;2022-12-31T19:15:26;13.30;99.90
42803;DHT22;28447;48.682;9.022;2022-12-31T19:17:54;13.30;99.90
42803;DHT22;28447;48.682;9.022;2022-12-31T19:20:20;13.20;99.90
42803;DHT22;28447;48.682;9.022;2022-12-31T19:22:45;13.00;99.90
42803;DHT22;28447;48.682;9.022;2022-12-31T19:27:45;12.90;99.90
42803;DHT22;28447;48.682;9.022;2022-12-31T19:30:22;12.90;99.90
42803;DHT22;28447;48.682;9.022;2022-12-31T19:32:48;12.90;99.90
42803;DHT22;28447;48.682;9.022;2022-12-31T19:35:14;12.80;99.90
42803;DHT22;28447;48.682;9.022;2022-12-31T19:37:41;12.80;99.90
42803;DHT22;28447;48.682;9.022;2022-12-31T19:40:19;12.80;99.90
42803;DHT22;28447;48.682;9.022;2022-12-31T19:42:46;12.80;99.90
42803;DHT22;28447;48.682;9.022;2022-12-31T19:45:14;12.80;99.90
42803;DHT22;28447;48.682;9.022;2022-12-31T19:47:40;12.70;99.90
42803;DHT22;28447;48.682;9.022;2022-12-31T19:50:08;12.70;99.90
42803;DHT22;28447;48.682;9.022;2022-12-31T19:52:35;12.70;99.90
42803;DHT22;28447;48.682;9.022;2022-12-31T19:55:01;12.70;99.90
42803;DHT22;28447;48.682;9.022;2022-12-31T19:57:27;12.70;99.90
42803;DHT22;28447;48.682;9.022;2022-12-31T19:59:52;12.80;99.90
42803;DHT22;28447;48.682;9.022;2022-12-31T20:02:18;12.80;99.90
42803;DHT22;28447;48.682;9.022;2022-12-31T20:04:43;12.80;99.90
42803;DHT22;28447;48.682;9.022;2022-12-31T20:07:09;12.80;99.90
42803;DHT22;28447;48.682;9.022;2022-12-31T20:09:34;12.70;99.90
42803;DHT22;28447;48.682;9.022;2022-12-31T20:12:00;12.80;99.90
42803;DHT22;28447;48.682;9.022;2022-12-31T20:14:26;12.70;99.90
42803;DHT22;28447;48.682;9.022;2022-12-31T20:16:51;12.70;99.90
42803;DHT22;28447;48.682;9.022;2022-12-31T20:19:17;12.70;99.90
42803;DHT22;28447;48.682;9.022;2022-12-31T20:21:43;12.70;99.90
42803;DHT22;28447;48.682;9.022;2022-12-31T20:24:09;12.70;99.90
42803;DHT22;28447;48.682;9.022;2022-12-31T20:26:35;12.60;99.90
42803;DHT22;28447;48.682;9.022;2022-12-31T20:29:01;12.60;99.90
42803;DHT22;28447;48.682;9.022;2022-12-31T20:31:27;12.60;99.90
42803;DHT22;28447;48.682;9.022;2022-12-31T20:33:53;12.50;99.90
42803;DHT22;28447;48.682;9.022;2022-12-31T20:36:19;12.50;99.90
42803;DHT22;28447;48.682;9.022;2022-12-31T20:38:45;12.50;99.90
42803;DHT22;28447;48.682;9.022;2022-12-31T20:41:16;12.50;99.90
42803;DHT22;28447;48.682;9.022;2022-12-31T20:43:42;12.50;99.90
42803;DHT22;28447;48.682;9.022;2022-12-31T20:46:12;12.50;99.90
42803;DHT22;28447;48.682;9.022;2022-12-31T20:48:38;12.50;99.90
42803;DHT22;28447;48.682;9.022;2022-12-31T20:51:04;12.50;99.90
42803;DHT22;28447;48.682;9.022;2022-12-31T20:53:30;12.50;99.90
42803;DHT22;28447;48.682;9.022;2022-12-31T20:55:56;12.50;99.90